sensor_id;sensor_type;location;lat;lon;timestamp;P1;durP1;ratioP1;P2;durP2;ratioP2
61527;SDS011;47395;42.032;-8.634;2023-08-17T00:00:35;5.70;;;3.38;;
61527;SDS011;47395;42.032;-8.634;2023-08-17T00:02:35;4.53;;;3.47;;
61527;SDS011;47395;42.032;-8.634;2023-08-17T00:04:36;3.67;;;3.38;;
61527;SDS011;47395;42.032;-8.634;2023-08-17T00:06:37;3.95;;;2.85;;
61527;SDS011;47395;42.032;-8.634;2023-08-17T00:08:37;5.18;;;3.25;;
61527;SDS011;47395;42.032;-8.634;2023-08-17T00:10:38;4.75;;;2.95;;
61527;SDS011;47395;42.032;-8.634;2023-08-17T00:12:39;3.28;;;2.97;;
61527;SDS011;47395;42.032;-8.634;2023-08-17T00:14:40;3.33;;;2.90;;
61527;SDS011;47395;42.032;-8.634;2023-08-17T00:16:40;3.03;;;2.83;;
61527;SDS011;47395;42.032;-8.634;2023-08-17T00:18:41;4.20;;;3.30;;
61527;SDS011;47395;42.032;-8.634;2023-08-17T00:20:42;4.88;;;3.15;;
61527;SDS011;47395;42.032;-8.634;2023-08-17T00:22:44;6.10;;;2.95;;
61527;SDS011;47395;42.032;-8.634;2023-08-17T00:24:45;4.18;;;2.67;;
61527;SDS011;47395;42.032;-8.634;2023-08-17T00:26:45;4.15;;;3.20;;
61527;SDS011;47395;42.032;-8.634;2023-08-17T00:28:46;4.65;;;3.38;;
61527;SDS011;47395;42.032;-8.634;2023-08-17T00:30:47;3.38;;;3.08;;
61527;SDS011;47395;42.032;-8.634;2023-08-17T00:32:48;3.50;;;3.20;;
61527;SDS011;47395;42.032;-8.634;2023-08-17T00:34:48;3.53;;;3.30;;
61527;SDS011;47395;42.032;-8.634;2023-08-17T00:36:49;4.88;;;3.40;;
61527;SDS011;47395;42.032;-8.634;2023-08-17T00:38:50;6.00;;;3.28;;
61527;SDS011;47395;42.032;-8.634;2023-08-17T00:40:51;4.82;;;3.17;;
61527;SDS011;47395;42.032;-8.634;2023-08-17T00:42:52;3.38;;;3.08;;
61527;SDS011;47395;42.032;-8.634;2023-08-17T00:44:54;4.10;;;3.38;;
61527;SDS011;47395;42.032;-8.634;2023-08-17T00:46:55;8.20;;;3.78;;
61527;SDS011;47395;42.032;-8.634;2023-08-17T00:48:56;3.47;;;3.22;;
61527;SDS011;47395;42.032;-8.634;2023-08-17T00:50:58;5.25;;;3.47;;
61527;SDS011;47395;42.032;-8.634;2023-08-17T00:53:00;3.97;;;3.35;;
61527;SDS011;47395;42.032;-8.634;2023-08-17T00:55:02;8.05;;;3.83;;
61527;SDS011;47395;42.032;-8.634;2023-08-17T00:57:03;4.10;;;3.80;;
61527;SDS011;47395;42.032;-8.634;2023-08-17T00:59:06;4.75;;;3.55;;
61527;SDS011;47395;42.032;-8.634;2023-08-17T01:01:07;5.47;;;3.90;;
61527;SDS011;47395;42.032;-8.634;2023-08-17T01:03:10;5.45;;;3.60;;
61527;SDS011;47395;42.032;-8.634;2023-08-17T01:05:12;3.95;;;3.58;;
61527;SDS011;47395;42.032;-8.634;2023-08-17T01:07:13;4.55;;;3.55;;
61527;SDS011;47395;42.032;-8.634;2023-08-17T01:09:14;4.25;;;3.78;;
61527;SDS011;47395;42.032;-8.634;2023-08-17T01:12:00;4.47;;;3.78;;
61527;SDS011;47395;42.032;-8.634;2023-08-17T01:13:50;4.57;;;4.07;;
61527;SDS011;47395;42.032;-8.634;2023-08-17T01:15:56;3.90;;;3.60;;
61527;SDS011;47395;42.032;-8.634;2023-08-17T01:18:03;8.30;;;3.70;;
61527;SDS011;47395;42.032;-8.634;2023-08-17T01:20:10;5.03;;;3.60;;
61527;SDS011;47395;42.032;-8.634;2023-08-17T01:22:13;6.50;;;3.45;;
61527;SDS011;47395;42.032;-8.634;2023-08-17T01:24:18;7.45;;;3.20;;
61527;SDS011;47395;42.032;-8.634;2023-08-17T01:26:18;4.03;;;3.63;;
61527;SDS011;47395;42.032;-8.634;2023-08-17T01:28:19;8.73;;;3.95;;
61527;SDS011;47395;42.032;-8.634;2023-08-17T01:30:20;7.28;;;3.63;;
61527;SDS011;47395;42.032;-8.634;2023-08-17T01:32:30;7.18;;;3.58;;
61527;SDS011;47395;42.032;-8.634;2023-08-17T01:34:42;3.97;;;3.75;;
61527;SDS011;47395;42.032;-8.634;2023-08-17T01:38:53;6.43;;;3.00;;
61527;SDS011;47395;42.032;-8.634;2023-08-17T01:40:57;4.05;;;3.35;;
61527;SDS011;47395;42.032;-8.634;2023-08-17T01:43:01;5.65;;;3.55;;
61527;SDS011;47395;42.032;-8.634;2023-08-17T01:45:03;4.88;;;3.38;;
61527;SDS011;47395;42.032;-8.634;2023-08-17T01:47:05;5.30;;;3.25;;
61527;SDS011;47395;42.032;-8.634;2023-08-17T01:49:05;3.42;;;3.10;;
61527;SDS011;47395;42.032;-8.634;2023-08-17T01:51:06;6.40;;;3.92;;
61527;SDS011;47395;42.032;-8.634;2023-08-17T01:53:07;4.03;;;3.60;;
61527;SDS011;47395;42.032;-8.634;2023-08-17T01:55:09;5.60;;;3.58;;
61527;SDS011;47395;42.032;-8.634;2023-08-17T01:57:10;4.00;;;3.60;;
61527;SDS011;47395;42.032;-8.634;2023-08-17T01:59:11;4.03;;;3.33;;
61527;SDS011;47395;42.032;-8.634;2023-08-17T02:01:13;3.63;;;3.33;;
61527;SDS011;47395;42.032;-8.634;2023-08-17T02:03:13;4.25;;;3.45;;
61527;SDS011;47395;42.032;-8.634;2023-08-17T02:05:15;3.88;;;3.28;;
61527;SDS011;47395;42.032;-8.634;2023-08-17T02:07:19;6.60;;;3.30;;
61527;SDS011;47395;42.032;-8.634;2023-08-17T02:09:23;4.63;;;2.83;;
61527;SDS011;47395;42.032;-8.634;2023-08-17T02:11:23;9.35;;;4.10;;
61527;SDS011;47395;42.032;-8.634;2023-08-17T02:13:25;5.47;;;3.60;;
61527;SDS011;47395;42.032;-8.634;2023-08-17T02:15:28;4.75;;;3.20;;
61527;SDS011;47395;42.032;-8.634;2023-08-17T02:17:29;4.88;;;3.47;;
61527;SDS011;47395;42.032;-8.634;2023-08-17T02:19:29;3.65;;;3.20;;
61527;SDS011;47395;42.032;-8.634;2023-08-17T02:21:30;4.75;;;3.30;;
61527;SDS011;47395;42.032;-8.634;2023-08-17T02:23:31;4.50;;;3.67;;
61527;SDS011;47395;42.032;-8.634;2023-08-17T02:25:32;3.97;;;3.30;;
61527;SDS011;47395;42.032;-8.634;2023-08-17T02:27:35;5.10;;;3.83;;
61527;SDS011;47395;42.032;-8.634;2023-08-17T02:29:37;7.38;;;3.63;;
61527;SDS011;47395;42.032;-8.634;2023-08-17T02:31:38;6.18;;;3.65;;
61527;SDS011;47395;42.032;-8.634;2023-08-17T02:33:38;4.00;;;3.70;;
61527;SDS011;47395;42.032;-8.634;2023-08-17T02:35:39;4.40;;;3.50;;
61527;SDS011;47395;42.032;-8.634;2023-08-17T02:37:40;4.53;;;4.10;;
61527;SDS011;47395;42.032;-8.634;2023-08-17T02:39:41;6.72;;;3.40;;
61527;SDS011;47395;42.032;-8.634;2023-08-17T02:41:42;3.60;;;3.30;;
61527;SDS011;47395;42.032;-8.634;2023-08-17T02:43:45;6.95;;;3.75;;
61527;SDS011;47395;42.032;-8.634;2023-08-17T02:45:46;6.40;;;4.20;;
61527;SDS011;47395;42.032;-8.634;2023-08-17T02:47:47;9.90;;;4.70;;
61527;SDS011;47395;42.032;-8.634;2023-08-17T02:49:49;5.35;;;4.55;;
61527;SDS011;47395;42.032;-8.634;2023-08-17T02:51:50;7.45;;;4.53;;
61527;SDS011;47395;42.032;-8.634;2023-08-17T02:53:50;9.68;;;4.30;;
61527;SDS011;47395;42.032;-8.634;2023-08-17T02:55:51;6.95;;;4.78;;
61527;SDS011;47395;42.032;-8.634;2023-08-17T02:57:52;6.07;;;4.28;;
61527;SDS011;47395;42.032;-8.634;2023-08-17T02:59:53;8.32;;;4.68;;
61527;SDS011;47395;42.032;-8.634;2023-08-17T03:01:53;6.57;;;4.55;;
61527;SDS011;47395;42.032;-8.634;2023-08-17T03:03:55;4.95;;;4.28;;
61527;SDS011;47395;42.032;-8.634;2023-08-17T03:05:55;6.18;;;4.22;;
61527;SDS011;47395;42.032;-8.634;2023-08-17T03:07:56;4.53;;;4.10;;
61527;SDS011;47395;42.032;-8.634;2023-08-17T03:09:57;6.13;;;4.20;;
61527;SDS011;47395;42.032;-8.634;2023-08-17T03:11:58;4.47;;;4.18;;
61527;SDS011;47395;42.032;-8.634;2023-08-17T03:13:58;4.40;;;4.00;;
61527;SDS011;47395;42.032;-8.634;2023-08-17T03:16:03;4.40;;;4.00;;
61527;SDS011;47395;42.032;-8.634;2023-08-17T03:18:04;4.18;;;3.88;;
61527;SDS011;47395;42.032;-8.634;2023-08-17T03:20:06;4.45;;;4.05;;
61527;SDS011;47395;42.032;-8.634;2023-08-17T03:22:07;6.30;;;3.95;;
61527;SDS011;47395;42.032;-8.634;2023-08-17T03:24:08;5.70;;;4.32;;
61527;SDS011;47395;42.032;-8.634;2023-08-17T03:26:09;4.20;;;4.00;;
61527;SDS011;47395;42.032;-8.634;2023-08-17T03:28:10;6.00;;;4.00;;
61527;SDS011;47395;42.032;-8.634;2023-08-17T03:30:10;5.43;;;4.13;;
61527;SDS011;47395;42.032;-8.634;2023-08-17T03:32:11;3.90;;;3.55;;
61527;SDS011;47395;42.032;-8.634;2023-08-17T03:34:12;5.47;;;3.38;;
61527;SDS011;47395;42.032;-8.634;2023-08-17T03:36:13;5.13;;;4.10;;
61527;SDS011;47395;42.032;-8.634;2023-08-17T03:38:14;3.95;;;3.65;;
61527;SDS011;47395;42.032;-8.634;2023-08-17T03:40:15;4.03;;;3.75;;
61527;SDS011;47395;42.032;-8.634;2023-08-17T03:42:15;4.35;;;4.05;;
61527;SDS011;47395;42.032;-8.634;2023-08-17T03:44:16;7.60;;;3.50;;
61527;SDS011;47395;42.032;-8.634;2023-08-17T03:46:17;4.38;;;4.07;;
61527;SDS011;47395;42.032;-8.634;2023-08-17T03:48:18;4.03;;;3.72;;
61527;SDS011;47395;42.032;-8.634;2023-08-17T03:50:20;4.07;;;3.72;;
61527;SDS011;47395;42.032;-8.634;2023-08-17T03:52:20;4.45;;;4.07;;
61527;SDS011;47395;42.032;-8.634;2023-08-17T03:54:22;4.90;;;4.50;;
61527;SDS011;47395;42.032;-8.634;2023-08-17T03:56:23;3.97;;;3.78;;
61527;SDS011;47395;42.032;-8.634;2023-08-17T03:58:24;4.60;;;4.20;;
61527;SDS011;47395;42.032;-8.634;2023-08-17T04:00:27;4.15;;;3.85;;
61527;SDS011;47395;42.032;-8.634;2023-08-17T04:04:49;7.88;;;4.45;;
61527;SDS011;47395;42.032;-8.634;2023-08-17T04:06:50;8.10;;;4.50;;
61527;SDS011;47395;42.032;-8.634;2023-08-17T04:08:51;8.35;;;4.75;;
61527;SDS011;47395;42.032;-8.634;2023-08-17T04:10:52;6.00;;;4.05;;
61527;SDS011;47395;42.032;-8.634;2023-08-17T04:12:57;5.05;;;4.57;;
61527;SDS011;47395;42.032;-8.634;2023-08-17T04:14:57;5.47;;;4.53;;
61527;SDS011;47395;42.032;-8.634;2023-08-17T04:17:01;6.32;;;4.75;;
61527;SDS011;47395;42.032;-8.634;2023-08-17T04:19:02;6.32;;;4.57;;
61527;SDS011;47395;42.032;-8.634;2023-08-17T04:21:05;5.10;;;4.60;;
61527;SDS011;47395;42.032;-8.634;2023-08-17T04:23:06;8.25;;;5.03;;
61527;SDS011;47395;42.032;-8.634;2023-08-17T04:25:09;10.48;;;5.97;;
61527;SDS011;47395;42.032;-8.634;2023-08-17T04:27:10;7.70;;;5.75;;
61527;SDS011;47395;42.032;-8.634;2023-08-17T04:29:13;9.80;;;6.40;;
61527;SDS011;47395;42.032;-8.634;2023-08-17T04:31:14;9.52;;;7.40;;
61527;SDS011;47395;42.032;-8.634;2023-08-17T04:33:18;11.60;;;7.45;;
61527;SDS011;47395;42.032;-8.634;2023-08-17T04:35:19;9.80;;;7.22;;
61527;SDS011;47395;42.032;-8.634;2023-08-17T04:37:21;19.38;;;8.25;;
61527;SDS011;47395;42.032;-8.634;2023-08-17T04:39:23;46.70;;;7.95;;
61527;SDS011;47395;42.032;-8.634;2023-08-17T04:41:24;16.10;;;7.45;;
61527;SDS011;47395;42.032;-8.634;2023-08-17T04:43:26;61.45;;;9.10;;
61527;SDS011;47395;42.032;-8.634;2023-08-17T04:45:27;32.33;;;8.73;;
61527;SDS011;47395;42.032;-8.634;2023-08-17T04:47:28;18.70;;;8.68;;
61527;SDS011;47395;42.032;-8.634;2023-08-17T04:49:29;8.70;;;7.97;;
61527;SDS011;47395;42.032;-8.634;2023-08-17T04:51:30;36.47;;;8.82;;
61527;SDS011;47395;42.032;-8.634;2023-08-17T04:53:31;32.20;;;9.23;;
61527;SDS011;47395;42.032;-8.634;2023-08-17T04:55:32;25.73;;;8.32;;
61527;SDS011;47395;42.032;-8.634;2023-08-17T04:57:33;39.08;;;8.68;;
61527;SDS011;47395;42.032;-8.634;2023-08-17T04:59:34;50.95;;;9.52;;
61527;SDS011;47395;42.032;-8.634;2023-08-17T05:01:35;57.78;;;8.48;;
61527;SDS011;47395;42.032;-8.634;2023-08-17T05:03:37;38.80;;;8.05;;
61527;SDS011;47395;42.032;-8.634;2023-08-17T05:05:38;28.15;;;8.35;;
61527;SDS011;47395;42.032;-8.634;2023-08-17T05:07:43;40.92;;;8.70;;
61527;SDS011;47395;42.032;-8.634;2023-08-17T05:09:44;31.65;;;8.88;;
61527;SDS011;47395;42.032;-8.634;2023-08-17T05:11:45;58.75;;;8.85;;
61527;SDS011;47395;42.032;-8.634;2023-08-17T05:13:46;96.72;;;9.35;;
61527;SDS011;47395;42.032;-8.634;2023-08-17T05:15:47;24.15;;;8.63;;
61527;SDS011;47395;42.032;-8.634;2023-08-17T05:17:49;19.05;;;8.70;;
61527;SDS011;47395;42.032;-8.634;2023-08-17T05:19:50;40.95;;;8.80;;
61527;SDS011;47395;42.032;-8.634;2023-08-17T05:21:52;48.17;;;9.07;;
61527;SDS011;47395;42.032;-8.634;2023-08-17T05:23:55;49.75;;;8.50;;
61527;SDS011;47395;42.032;-8.634;2023-08-17T05:25:58;34.88;;;9.10;;
61527;SDS011;47395;42.032;-8.634;2023-08-17T05:27:59;28.90;;;9.43;;
61527;SDS011;47395;42.032;-8.634;2023-08-17T05:30:00;18.33;;;9.38;;
61527;SDS011;47395;42.032;-8.634;2023-08-17T05:32:03;21.70;;;9.88;;
61527;SDS011;47395;42.032;-8.634;2023-08-17T05:34:04;17.58;;;8.95;;
61527;SDS011;47395;42.032;-8.634;2023-08-17T05:36:07;25.10;;;9.70;;
61527;SDS011;47395;42.032;-8.634;2023-08-17T05:38:08;14.20;;;9.25;;
61527;SDS011;47395;42.032;-8.634;2023-08-17T05:40:10;26.50;;;9.85;;
61527;SDS011;47395;42.032;-8.634;2023-08-17T05:42:11;10.30;;;8.50;;
61527;SDS011;47395;42.032;-8.634;2023-08-17T05:44:12;21.08;;;9.65;;
61527;SDS011;47395;42.032;-8.634;2023-08-17T05:46:15;14.15;;;8.80;;
61527;SDS011;47395;42.032;-8.634;2023-08-17T05:48:19;10.80;;;8.43;;
61527;SDS011;47395;42.032;-8.634;2023-08-17T05:50:21;10.13;;;8.15;;
61527;SDS011;47395;42.032;-8.634;2023-08-17T05:52:21;11.35;;;8.45;;
61527;SDS011;47395;42.032;-8.634;2023-08-17T05:54:22;11.77;;;9.02;;
61527;SDS011;47395;42.032;-8.634;2023-08-17T05:56:23;14.50;;;8.25;;
61527;SDS011;47395;42.032;-8.634;2023-08-17T05:58:24;13.70;;;8.38;;
61527;SDS011;47395;42.032;-8.634;2023-08-17T06:00:25;12.90;;;9.48;;
61527;SDS011;47395;42.032;-8.634;2023-08-17T06:02:26;15.05;;;9.18;;
61527;SDS011;47395;42.032;-8.634;2023-08-17T06:04:26;16.85;;;9.15;;
61527;SDS011;47395;42.032;-8.634;2023-08-17T06:06:27;14.07;;;9.05;;
61527;SDS011;47395;42.032;-8.634;2023-08-17T06:08:28;13.43;;;9.23;;
61527;SDS011;47395;42.032;-8.634;2023-08-17T06:10:30;13.60;;;8.55;;
61527;SDS011;47395;42.032;-8.634;2023-08-17T06:12:31;12.07;;;8.38;;
61527;SDS011;47395;42.032;-8.634;2023-08-17T06:14:33;14.05;;;8.68;;
61527;SDS011;47395;42.032;-8.634;2023-08-17T06:16:34;18.55;;;8.93;;
61527;SDS011;47395;42.032;-8.634;2023-08-17T06:18:36;11.98;;;8.20;;
61527;SDS011;47395;42.032;-8.634;2023-08-17T06:20:37;14.77;;;9.65;;
61527;SDS011;47395;42.032;-8.634;2023-08-17T06:22:38;14.10;;;8.80;;
61527;SDS011;47395;42.032;-8.634;2023-08-17T06:24:39;13.38;;;8.73;;
61527;SDS011;47395;42.032;-8.634;2023-08-17T06:26:39;12.65;;;8.50;;
61527;SDS011;47395;42.032;-8.634;2023-08-17T06:28:40;13.30;;;9.02;;
61527;SDS011;47395;42.032;-8.634;2023-08-17T06:30:41;11.20;;;8.20;;
61527;SDS011;47395;42.032;-8.634;2023-08-17T06:32:42;10.75;;;9.13;;
61527;SDS011;47395;42.032;-8.634;2023-08-17T06:34:43;13.52;;;8.63;;
61527;SDS011;47395;42.032;-8.634;2023-08-17T06:36:53;10.95;;;8.32;;
61527;SDS011;47395;42.032;-8.634;2023-08-17T06:38:58;15.73;;;9.40;;
61527;SDS011;47395;42.032;-8.634;2023-08-17T06:40:59;17.88;;;9.77;;
61527;SDS011;47395;42.032;-8.634;2023-08-17T06:43:00;16.90;;;9.80;;
61527;SDS011;47395;42.032;-8.634;2023-08-17T06:45:01;16.25;;;10.07;;
61527;SDS011;47395;42.032;-8.634;2023-08-17T06:47:02;13.07;;;9.40;;
61527;SDS011;47395;42.032;-8.634;2023-08-17T06:49:03;12.02;;;9.15;;
61527;SDS011;47395;42.032;-8.634;2023-08-17T06:51:04;15.65;;;10.10;;
61527;SDS011;47395;42.032;-8.634;2023-08-17T06:53:05;19.25;;;9.80;;
61527;SDS011;47395;42.032;-8.634;2023-08-17T06:55:06;15.23;;;9.77;;
61527;SDS011;47395;42.032;-8.634;2023-08-17T06:57:07;14.10;;;9.15;;
61527;SDS011;47395;42.032;-8.634;2023-08-17T06:59:08;11.35;;;8.02;;
61527;SDS011;47395;42.032;-8.634;2023-08-17T07:01:09;9.48;;;8.15;;
61527;SDS011;47395;42.032;-8.634;2023-08-17T07:03:10;8.20;;;7.05;;
61527;SDS011;47395;42.032;-8.634;2023-08-17T07:05:11;9.70;;;8.18;;
61527;SDS011;47395;42.032;-8.634;2023-08-17T07:07:13;14.15;;;8.70;;
61527;SDS011;47395;42.032;-8.634;2023-08-17T07:09:14;12.98;;;8.32;;
61527;SDS011;47395;42.032;-8.634;2023-08-17T07:11:16;12.23;;;8.40;;
61527;SDS011;47395;42.032;-8.634;2023-08-17T07:13:17;14.35;;;8.27;;
61527;SDS011;47395;42.032;-8.634;2023-08-17T07:15:17;13.77;;;8.32;;
61527;SDS011;47395;42.032;-8.634;2023-08-17T07:17:18;10.20;;;7.90;;
61527;SDS011;47395;42.032;-8.634;2023-08-17T07:19:21;10.55;;;7.72;;
61527;SDS011;47395;42.032;-8.634;2023-08-17T07:21:22;10.52;;;7.90;;
61527;SDS011;47395;42.032;-8.634;2023-08-17T07:23:23;8.93;;;7.90;;
61527;SDS011;47395;42.032;-8.634;2023-08-17T07:25:24;14.13;;;7.65;;
61527;SDS011;47395;42.032;-8.634;2023-08-17T07:27:25;8.48;;;7.70;;
61527;SDS011;47395;42.032;-8.634;2023-08-17T07:29:27;7.07;;;6.38;;
61527;SDS011;47395;42.032;-8.634;2023-08-17T07:31:28;6.25;;;5.75;;
61527;SDS011;47395;42.032;-8.634;2023-08-17T07:33:28;6.65;;;5.85;;
61527;SDS011;47395;42.032;-8.634;2023-08-17T07:35:29;7.40;;;6.70;;
61527;SDS011;47395;42.032;-8.634;2023-08-17T07:37:31;8.52;;;6.68;;
61527;SDS011;47395;42.032;-8.634;2023-08-17T07:39:35;7.82;;;7.13;;
61527;SDS011;47395;42.032;-8.634;2023-08-17T07:41:36;6.70;;;6.10;;
61527;SDS011;47395;42.032;-8.634;2023-08-17T07:43:37;6.45;;;5.90;;
61527;SDS011;47395;42.032;-8.634;2023-08-17T07:45:38;8.88;;;6.57;;
61527;SDS011;47395;42.032;-8.634;2023-08-17T07:47:39;7.78;;;6.93;;
61527;SDS011;47395;42.032;-8.634;2023-08-17T07:49:40;7.25;;;6.57;;
61527;SDS011;47395;42.032;-8.634;2023-08-17T07:51:40;10.23;;;7.00;;
61527;SDS011;47395;42.032;-8.634;2023-08-17T07:53:43;8.25;;;6.68;;
61527;SDS011;47395;42.032;-8.634;2023-08-17T07:55:43;11.23;;;7.25;;
61527;SDS011;47395;42.032;-8.634;2023-08-17T07:57:45;8.57;;;7.50;;
61527;SDS011;47395;42.032;-8.634;2023-08-17T07:59:47;8.63;;;7.72;;
61527;SDS011;47395;42.032;-8.634;2023-08-17T08:01:49;13.13;;;8.75;;
61527;SDS011;47395;42.032;-8.634;2023-08-17T08:03:51;13.07;;;7.63;;
61527;SDS011;47395;42.032;-8.634;2023-08-17T08:05:52;10.35;;;7.43;;
61527;SDS011;47395;42.032;-8.634;2023-08-17T08:07:53;11.63;;;8.98;;
61527;SDS011;47395;42.032;-8.634;2023-08-17T08:09:54;17.80;;;8.75;;
61527;SDS011;47395;42.032;-8.634;2023-08-17T08:11:54;14.85;;;9.75;;
61527;SDS011;47395;42.032;-8.634;2023-08-17T08:13:55;12.55;;;9.32;;
61527;SDS011;47395;42.032;-8.634;2023-08-17T08:16:00;13.23;;;8.00;;
61527;SDS011;47395;42.032;-8.634;2023-08-17T08:18:01;18.40;;;8.82;;
61527;SDS011;47395;42.032;-8.634;2023-08-17T08:20:02;10.02;;;9.00;;
61527;SDS011;47395;42.032;-8.634;2023-08-17T08:22:03;10.10;;;8.45;;
61527;SDS011;47395;42.032;-8.634;2023-08-17T08:24:04;10.02;;;8.95;;
61527;SDS011;47395;42.032;-8.634;2023-08-17T08:26:06;11.70;;;8.30;;
61527;SDS011;47395;42.032;-8.634;2023-08-17T08:28:06;10.95;;;9.15;;
61527;SDS011;47395;42.032;-8.634;2023-08-17T08:30:10;19.30;;;8.70;;
61527;SDS011;47395;42.032;-8.634;2023-08-17T08:32:11;8.93;;;6.57;;
61527;SDS011;47395;42.032;-8.634;2023-08-17T08:34:11;7.90;;;6.70;;
61527;SDS011;47395;42.032;-8.634;2023-08-17T08:36:12;6.38;;;5.72;;
61527;SDS011;47395;42.032;-8.634;2023-08-17T08:38:13;7.25;;;6.40;;
61527;SDS011;47395;42.032;-8.634;2023-08-17T08:40:14;8.65;;;7.13;;
61527;SDS011;47395;42.032;-8.634;2023-08-17T08:42:18;6.47;;;5.88;;
61527;SDS011;47395;42.032;-8.634;2023-08-17T08:44:19;7.93;;;7.22;;
61527;SDS011;47395;42.032;-8.634;2023-08-17T08:46:20;10.10;;;7.60;;
61527;SDS011;47395;42.032;-8.634;2023-08-17T08:48:22;8.05;;;7.05;;
61527;SDS011;47395;42.032;-8.634;2023-08-17T08:50:26;8.38;;;7.57;;
61527;SDS011;47395;42.032;-8.634;2023-08-17T08:52:35;7.97;;;7.28;;
61527;SDS011;47395;42.032;-8.634;2023-08-17T08:54:42;7.22;;;6.63;;
61527;SDS011;47395;42.032;-8.634;2023-08-17T08:56:51;7.75;;;6.97;;
61527;SDS011;47395;42.032;-8.634;2023-08-17T08:58:56;9.40;;;6.70;;
61527;SDS011;47395;42.032;-8.634;2023-08-17T09:00:59;7.47;;;6.75;;
61527;SDS011;47395;42.032;-8.634;2023-08-17T09:03:02;6.60;;;5.97;;
61527;SDS011;47395;42.032;-8.634;2023-08-17T09:05:05;7.05;;;5.28;;
61527;SDS011;47395;42.032;-8.634;2023-08-17T09:07:09;5.05;;;4.55;;
61527;SDS011;47395;42.032;-8.634;2023-08-17T09:09:12;7.05;;;5.20;;
61527;SDS011;47395;42.032;-8.634;2023-08-17T09:11:17;5.43;;;4.57;;
61527;SDS011;47395;42.032;-8.634;2023-08-17T09:13:18;11.52;;;4.55;;
61527;SDS011;47395;42.032;-8.634;2023-08-17T09:15:19;6.10;;;5.22;;
61527;SDS011;47395;42.032;-8.634;2023-08-17T09:17:26;4.95;;;4.63;;
61527;SDS011;47395;42.032;-8.634;2023-08-17T09:19:28;11.65;;;5.55;;
61527;SDS011;47395;42.032;-8.634;2023-08-17T09:21:31;5.63;;;4.88;;
61527;SDS011;47395;42.032;-8.634;2023-08-17T09:23:33;4.82;;;4.47;;
61527;SDS011;47395;42.032;-8.634;2023-08-17T09:25:35;4.78;;;4.47;;
61527;SDS011;47395;42.032;-8.634;2023-08-17T09:27:37;7.57;;;4.25;;
61527;SDS011;47395;42.032;-8.634;2023-08-17T09:29:40;7.10;;;4.75;;
61527;SDS011;47395;42.032;-8.634;2023-08-17T09:31:47;7.13;;;4.60;;
61527;SDS011;47395;42.032;-8.634;2023-08-17T09:33:52;8.15;;;4.65;;
61527;SDS011;47395;42.032;-8.634;2023-08-17T09:35:53;5.10;;;4.28;;
61527;SDS011;47395;42.032;-8.634;2023-08-17T09:37:55;4.90;;;4.43;;
61527;SDS011;47395;42.032;-8.634;2023-08-17T09:39:57;4.63;;;4.28;;
61527;SDS011;47395;42.032;-8.634;2023-08-17T09:41:59;6.05;;;4.72;;
61527;SDS011;47395;42.032;-8.634;2023-08-17T09:44:00;6.30;;;4.25;;
61527;SDS011;47395;42.032;-8.634;2023-08-17T09:46:01;4.70;;;4.40;;
61527;SDS011;47395;42.032;-8.634;2023-08-17T09:48:03;4.43;;;3.63;;
61527;SDS011;47395;42.032;-8.634;2023-08-17T09:50:05;4.50;;;4.13;;
61527;SDS011;47395;42.032;-8.634;2023-08-17T09:52:07;8.32;;;4.00;;
61527;SDS011;47395;42.032;-8.634;2023-08-17T09:54:14;4.78;;;4.30;;
61527;SDS011;47395;42.032;-8.634;2023-08-17T09:56:21;4.82;;;4.35;;
61527;SDS011;47395;42.032;-8.634;2023-08-17T09:58:23;4.32;;;4.00;;
61527;SDS011;47395;42.032;-8.634;2023-08-17T10:00:24;4.47;;;4.07;;
61527;SDS011;47395;42.032;-8.634;2023-08-17T10:02:26;5.18;;;3.80;;
61527;SDS011;47395;42.032;-8.634;2023-08-17T10:04:29;5.22;;;3.33;;
61527;SDS011;47395;42.032;-8.634;2023-08-17T10:06:34;3.70;;;3.40;;
61527;SDS011;47395;42.032;-8.634;2023-08-17T10:08:42;4.10;;;3.80;;
61527;SDS011;47395;42.032;-8.634;2023-08-17T10:10:46;4.75;;;3.35;;
61527;SDS011;47395;42.032;-8.634;2023-08-17T10:12:53;4.30;;;3.83;;
61527;SDS011;47395;42.032;-8.634;2023-08-17T10:15:11;5.20;;;3.45;;
61527;SDS011;47395;42.032;-8.634;2023-08-17T10:17:17;4.15;;;3.75;;
61527;SDS011;47395;42.032;-8.634;2023-08-17T10:21:56;7.60;;;3.60;;
61527;SDS011;47395;42.032;-8.634;2023-08-17T10:24:08;5.13;;;3.63;;
61527;SDS011;47395;42.032;-8.634;2023-08-17T10:26:11;3.40;;;3.10;;
61527;SDS011;47395;42.032;-8.634;2023-08-17T10:28:13;3.80;;;3.30;;
61527;SDS011;47395;42.032;-8.634;2023-08-17T10:30:14;9.13;;;3.08;;
61527;SDS011;47395;42.032;-8.634;2023-08-17T10:32:15;3.42;;;3.13;;
61527;SDS011;47395;42.032;-8.634;2023-08-17T10:34:16;6.38;;;2.85;;
61527;SDS011;47395;42.032;-8.634;2023-08-17T10:36:17;5.13;;;2.72;;
61527;SDS011;47395;42.032;-8.634;2023-08-17T10:38:20;2.70;;;2.60;;
61527;SDS011;47395;42.032;-8.634;2023-08-17T10:40:27;5.32;;;2.80;;
61527;SDS011;47395;42.032;-8.634;2023-08-17T10:42:34;2.90;;;2.70;;
61527;SDS011;47395;42.032;-8.634;2023-08-17T10:44:39;2.08;;;2.03;;
61527;SDS011;47395;42.032;-8.634;2023-08-17T10:46:45;3.28;;;2.35;;
61527;SDS011;47395;42.032;-8.634;2023-08-17T10:48:46;2.45;;;2.28;;
61527;SDS011;47395;42.032;-8.634;2023-08-17T10:51:00;2.65;;;2.45;;
61527;SDS011;47395;42.032;-8.634;2023-08-17T10:53:09;4.00;;;2.00;;
61527;SDS011;47395;42.032;-8.634;2023-08-17T10:55:11;2.10;;;2.00;;
61527;SDS011;47395;42.032;-8.634;2023-08-17T10:59:46;2.10;;;2.00;;
61527;SDS011;47395;42.032;-8.634;2023-08-17T11:01:47;2.63;;;2.20;;
61527;SDS011;47395;42.032;-8.634;2023-08-17T11:04:08;1.90;;;1.80;;
61527;SDS011;47395;42.032;-8.634;2023-08-17T11:06:17;5.53;;;1.88;;
61527;SDS011;47395;42.032;-8.634;2023-08-17T11:08:28;1.52;;;1.50;;
61527;SDS011;47395;42.032;-8.634;2023-08-17T11:10:31;1.80;;;1.70;;
61527;SDS011;47395;42.032;-8.634;2023-08-17T11:12:33;1.30;;;1.30;;
61527;SDS011;47395;42.032;-8.634;2023-08-17T11:14:36;1.15;;;1.10;;
61527;SDS011;47395;42.032;-8.634;2023-08-17T11:16:37;1.58;;;1.30;;
61527;SDS011;47395;42.032;-8.634;2023-08-17T11:18:38;1.23;;;1.20;;
61527;SDS011;47395;42.032;-8.634;2023-08-17T11:20:40;1.20;;;1.20;;
61527;SDS011;47395;42.032;-8.634;2023-08-17T11:22:42;1.27;;;1.27;;
61527;SDS011;47395;42.032;-8.634;2023-08-17T11:24:43;1.70;;;1.60;;
61527;SDS011;47395;42.032;-8.634;2023-08-17T11:26:44;1.17;;;1.17;;
61527;SDS011;47395;42.032;-8.634;2023-08-17T11:28:46;1.40;;;1.40;;
61527;SDS011;47395;42.032;-8.634;2023-08-17T11:31:00;1.10;;;1.00;;
61527;SDS011;47395;42.032;-8.634;2023-08-17T11:33:03;2.88;;;1.42;;
61527;SDS011;47395;42.032;-8.634;2023-08-17T11:35:05;1.10;;;1.10;;
61527;SDS011;47395;42.032;-8.634;2023-08-17T11:37:05;1.30;;;1.30;;
61527;SDS011;47395;42.032;-8.634;2023-08-17T11:39:06;1.25;;;0.80;;
61527;SDS011;47395;42.032;-8.634;2023-08-17T11:41:08;1.02;;;1.02;;
61527;SDS011;47395;42.032;-8.634;2023-08-17T11:43:10;0.90;;;0.90;;
61527;SDS011;47395;42.032;-8.634;2023-08-17T11:45:11;1.73;;;0.90;;
61527;SDS011;47395;42.032;-8.634;2023-08-17T11:47:13;1.27;;;1.27;;
61527;SDS011;47395;42.032;-8.634;2023-08-17T11:49:14;1.40;;;1.38;;
61527;SDS011;47395;42.032;-8.634;2023-08-17T11:51:15;1.50;;;1.40;;
61527;SDS011;47395;42.032;-8.634;2023-08-17T11:53:16;1.40;;;1.40;;
61527;SDS011;47395;42.032;-8.634;2023-08-17T11:55:17;1.70;;;1.60;;
61527;SDS011;47395;42.032;-8.634;2023-08-17T11:57:20;1.83;;;1.73;;
61527;SDS011;47395;42.032;-8.634;2023-08-17T11:59:20;2.00;;;1.90;;
61527;SDS011;47395;42.032;-8.634;2023-08-17T12:01:21;2.38;;;2.20;;
61527;SDS011;47395;42.032;-8.634;2023-08-17T12:03:22;3.40;;;2.30;;
61527;SDS011;47395;42.032;-8.634;2023-08-17T12:05:25;2.58;;;2.25;;
61527;SDS011;47395;42.032;-8.634;2023-08-17T12:07:27;2.60;;;2.40;;
61527;SDS011;47395;42.032;-8.634;2023-08-17T12:09:31;2.65;;;2.22;;
61527;SDS011;47395;42.032;-8.634;2023-08-17T12:11:34;2.45;;;2.35;;